Time;durP1;ratioP1;P1;durP2;ratioP2;P2;SDS_P1;SDS_P2;PMS_P1;PMS_P2;Temp;Humidity;BMP_temperature;BMP_pressure;BME280_temperature;BME280_humidity;BME280_pressure;Samples;Min_cycle;Max_cycle;Signal;HPM_P1;HPM_P2
2023/11/06 00:01:11;;;;;;;4.10;1.30;;;8.90;18.40;;;;;;5018068;28;20632;-68
2023/11/06 00:03:36;;;;;;;4.70;1.33;;;8.90;19.10;;;;;;5017888;28;20198;-68
2023/11/06 00:06:02;;;;;;;1.90;0.90;;;8.80;18.90;;;;;;5013998;28;20433;-68
2023/11/06 00:08:27;;;;;;;3.03;0.97;;;8.80;19.60;;;;;;4997071;28;20597;-68
2023/11/06 00:10:53;;;;;;;2.43;1.10;;;8.60;20.90;;;;;;5014327;28;20547;-68
2023/11/06 00:13:19;;;;;;;2.13;1.10;;;8.50;21.30;;;;;;4996720;28;20218;-68
2023/11/06 00:15:46;;;;;;;2.70;0.90;;;8.60;19.90;;;;;;5014685;28;20180;-68
2023/11/06 00:18:12;;;;;;;3.30;0.70;;;8.50;19.50;;;;;;5015307;28;20421;-68
2023/11/06 00:20:38;;;;;;;2.27;1.53;;;8.40;20.20;;;;;;5014723;28;20414;-68
2023/11/06 00:23:03;;;;;;;3.30;0.93;;;8.40;20.20;;;;;;5014183;28;20198;-69
2023/11/06 00:25:30;;;;;;;4.00;1.57;;;8.40;18.40;;;;;;4996658;28;20174;-68
2023/11/06 00:27:55;;;;;;;2.53;0.77;;;8.40;18.60;;;;;;5014337;28;20171;-69
2023/11/06 00:30:21;;;;;;;2.23;1.00;;;8.40;19.30;;;;;;5014163;28;20422;-69
2023/11/06 00:32:47;;;;;;;2.50;1.03;;;8.30;20.30;;;;;;5013952;28;20215;-69
2023/11/06 00:35:13;;;;;;;4.27;1.43;;;8.40;19.00;;;;;;5014102;28;20416;-69
2023/11/06 00:37:39;;;;;;;2.63;1.27;;;8.40;19.10;;;;;;5014153;28;20261;-68
2023/11/06 00:40:07;;;;;;;7.47;1.30;;;8.50;18.20;;;;;;5013679;28;20552;-68
2023/11/06 00:42:33;;;;;;;3.03;0.87;;;8.50;18.60;;;;;;4996431;28;20540;-68
2023/11/06 00:44:59;;;;;;;3.93;1.40;;;8.60;18.80;;;;;;5014070;28;20453;-68
2023/11/06 00:47:24;;;;;;;5.33;1.53;;;8.80;17.80;;;;;;4996270;28;20278;-68
2023/11/06 00:49:50;;;;;;;2.67;1.10;;;8.80;17.10;;;;;;5012482;28;20187;-67
2023/11/06 00:52:16;;;;;;;3.60;1.57;;;8.80;17.70;;;;;;5013611;28;20213;-67
2023/11/06 00:54:41;;;;;;;2.20;0.90;;;8.80;18.20;;;;;;5013611;28;20190;-67
2023/11/06 00:57:07;;;;;;;2.77;1.13;;;8.70;18.30;;;;;;4996106;28;20691;-67
2023/11/06 00:59:32;;;;;;;1.70;0.70;;;8.60;18.20;;;;;;5013696;28;20252;-67
2023/11/06 01:01:58;;;;;;;2.50;0.90;;;8.60;18.20;;;;;;5013553;28;20174;-68
2023/11/06 01:04:23;;;;;;;3.80;1.00;;;8.50;17.20;;;;;;5013587;28;20821;-67
2023/11/06 01:06:49;;;;;;;5.23;1.17;;;8.60;16.00;;;;;;5013617;28;20178;-67
2023/11/06 01:09:16;;;;;;;2.53;1.23;;;8.70;14.70;;;;;;5013373;28;20665;-67
2023/11/06 01:11:48;;;;;;;3.43;0.80;;;8.60;14.60;;;;;;5013219;28;20178;-67
2023/11/06 01:14:14;;;;;;;2.57;1.03;;;8.60;14.50;;;;;;5013503;28;20427;-67
2023/11/06 01:16:39;;;;;;;6.93;1.80;;;8.60;15.00;;;;;;5013320;28;20421;-67
2023/11/06 01:19:05;;;;;;;2.57;0.60;;;8.60;15.20;;;;;;5012044;28;20461;-68
2023/11/06 01:21:31;;;;;;;1.93;0.67;;;8.60;15.70;;;;;;5013062;28;20173;-68
2023/11/06 01:23:57;;;;;;;3.53;1.10;;;8.70;14.50;;;;;;5013108;28;20186;-67
2023/11/06 01:26:22;;;;;;;2.60;0.90;;;8.70;14.00;;;;;;5013284;28;20412;-67
2023/11/06 01:28:48;;;;;;;4.83;0.83;;;8.70;14.80;;;;;;5013163;28;20180;-67
2023/11/06 01:31:14;;;;;;;14.43;2.97;;;8.70;14.00;;;;;;5012969;28;20262;-68
2023/11/06 01:33:39;;;;;;;1.60;0.60;;;8.70;15.40;;;;;;5012978;28;20256;-67
2023/11/06 01:36:05;;;;;;;4.80;1.30;;;8.70;16.10;;;;;;5013218;28;20208;-67
2023/11/06 01:38:30;;;;;;;2.50;0.97;;;8.70;17.00;;;;;;5012843;28;20210;-67
2023/11/06 01:40:56;;;;;;;2.60;1.20;;;8.60;17.70;;;;;;5012635;28;20180;-68
2023/11/06 01:43:25;;;;;;;1.93;0.97;;;8.60;17.60;;;;;;5011383;28;20625;-68
2023/11/06 01:45:51;;;;;;;1.80;0.70;;;8.50;17.90;;;;;;5012883;28;20583;-68
2023/11/06 01:48:17;;;;;;;1.60;0.60;;;8.40;18.70;;;;;;5012676;28;20452;-67
2023/11/06 01:50:43;;;;;;;2.13;0.70;;;8.40;18.10;;;;;;5012546;28;20171;-67
2023/11/06 01:53:10;;;;;;;1.77;0.77;;;8.40;16.90;;;;;;4994948;28;20438;-67
2023/11/06 01:55:38;;;;;;;1.60;0.60;;;8.40;16.00;;;;;;5012903;28;20187;-67
2023/11/06 01:58:04;;;;;;;2.53;0.60;;;8.50;15.00;;;;;;5012599;28;20555;-67
2023/11/06 02:00:31;;;;;;;1.73;0.67;;;8.50;13.80;;;;;;5012390;28;20556;-68
2023/11/06 02:02:56;;;;;;;2.20;1.30;;;8.60;12.40;;;;;;5012268;28;20206;-67
2023/11/06 02:05:22;;;;;;;3.17;0.90;;;8.50;13.80;;;;;;5012481;28;20915;-68
2023/11/06 02:07:47;;;;;;;2.43;0.90;;;8.60;11.20;;;;;;5012940;28;20236;-67
2023/11/06 02:10:16;;;;;;;2.23;0.60;;;8.80;10.20;;;;;;5015906;28;20178;-67
2023/11/06 02:12:41;;;;;;;2.20;0.83;;;8.80;10.30;;;;;;4997781;28;20211;-67
2023/11/06 02:15:13;;;;;;;3.60;0.73;;;8.80;8.20;;;;;;5014979;28;20809;-67
2023/11/06 02:17:41;;;;;;;1.60;0.57;;;8.90;7.10;;;;;;5012805;28;20210;-68
2023/11/06 02:20:08;;;;;;;4.07;0.70;;;8.90;7.40;;;;;;5014216;28;20457;-68
2023/11/06 02:22:33;;;;;;;2.77;1.13;;;8.90;8.40;;;;;;5014037;28;20522;-68
2023/11/06 02:25:00;;;;;;;4.90;0.93;;;8.90;7.60;;;;;;5014741;28;20469;-68
2023/11/06 02:27:26;;;;;;;1.67;0.60;;;8.80;8.10;;;;;;5015991;28;20176;-68
2023/11/06 02:29:51;;;;;;;2.10;0.70;;;8.70;8.20;;;;;;5016181;28;20449;-68
2023/11/06 02:32:17;;;;;;;2.67;0.80;;;8.70;8.60;;;;;;4998216;28;20206;-68
2023/11/06 02:34:45;;;;;;;2.63;0.60;;;8.80;8.90;;;;;;5016179;28;20603;-68
2023/11/06 02:37:10;;;;;;;2.10;0.70;;;8.80;9.60;;;;;;5015682;28;20244;-68
2023/11/06 02:39:37;;;;;;;3.37;0.60;;;8.70;9.60;;;;;;5016063;28;20476;-68
2023/11/06 02:42:03;;;;;;;2.57;0.80;;;8.80;9.60;;;;;;5015367;28;20179;-68
2023/11/06 02:44:29;;;;;;;2.60;1.27;;;8.80;9.70;;;;;;5015754;28;20957;-68
2023/11/06 02:46:54;;;;;;;3.77;1.07;;;8.80;8.30;;;;;;5016056;28;20411;-67
2023/11/06 02:49:20;;;;;;;5.73;0.70;;;8.90;8.40;;;;;;5015581;28;20309;-68
2023/11/06 02:51:45;;;;;;;1.90;0.60;;;8.90;9.70;;;;;;5015432;28;20195;-68
2023/11/06 02:54:11;;;;;;;5.63;0.80;;;8.90;8.80;;;;;;4998043;28;20234;-67
2023/11/06 02:56:37;;;;;;;2.67;0.60;;;8.80;9.20;;;;;;5014906;28;20174;-67
2023/11/06 02:59:04;;;;;;;2.87;0.77;;;8.80;9.60;;;;;;5014057;28;20215;-67
2023/11/06 03:01:29;;;;;;;6.60;1.50;;;8.70;10.30;;;;;;5013122;28;20175;-68
2023/11/06 03:03:55;;;;;;;7.40;0.90;;;8.80;10.00;;;;;;5014422;28;20520;-67
2023/11/06 03:06:21;;;;;;;6.50;1.30;;;8.80;9.60;;;;;;5013514;28;20597;-67
2023/11/06 03:08:46;;;;;;;4.70;1.13;;;8.90;9.90;;;;;;5014209;28;20179;-67
2023/11/06 03:11:13;;;;;;;6.13;1.10;;;9.00;10.70;;;;;;5013345;28;20246;-67
2023/11/06 03:13:39;;;;;;;3.37;1.00;;;9.00;11.50;;;;;;5013308;28;20218;-67
2023/11/06 03:16:04;;;;;;;3.53;0.90;;;9.10;11.50;;;;;;5011664;28;20423;-67
2023/11/06 03:18:30;;;;;;;2.37;0.93;;;9.10;11.40;;;;;;5011493;28;20195;-68
2023/11/06 03:20:55;;;;;;;5.23;1.10;;;9.10;11.80;;;;;;5011591;28;20195;-67
2023/11/06 03:23:21;;;;;;;2.00;0.83;;;9.00;11.90;;;;;;5011542;28;20542;-68
2023/11/06 03:25:47;;;;;;;2.90;1.17;;;9.00;12.90;;;;;;5011605;28;20226;-67
2023/11/06 03:28:12;;;;;;;2.30;0.93;;;9.00;13.30;;;;;;5011637;28;20650;-68
2023/11/06 03:30:38;;;;;;;5.10;0.90;;;9.00;13.00;;;;;;5011444;28;20549;-67
2023/11/06 03:33:03;;;;;;;2.57;0.90;;;9.00;12.50;;;;;;5011310;28;20207;-68
2023/11/06 03:35:29;;;;;;;2.40;0.80;;;9.00;12.50;;;;;;5010367;28;20267;-68
2023/11/06 03:37:55;;;;;;;2.63;1.47;;;9.10;12.70;;;;;;5011409;28;20187;-68
2023/11/06 03:40:21;;;;;;;6.50;2.30;;;9.20;11.30;;;;;;5012917;28;20545;-68
2023/11/06 03:42:46;;;;;;;2.73;1.27;;;9.20;9.90;;;;;;5014696;28;20278;-68
2023/11/06 03:45:12;;;;;;;2.90;1.13;;;9.20;9.90;;;;;;5015102;28;20410;-68
2023/11/06 03:47:38;;;;;;;2.33;0.90;;;9.20;9.10;;;;;;5014943;28;20633;-67
2023/11/06 03:50:04;;;;;;;4.43;1.20;;;9.10;9.90;;;;;;5014981;28;20194;-67
2023/11/06 03:52:29;;;;;;;2.40;1.00;;;9.00;9.80;;;;;;5014676;28;20286;-68
2023/11/06 03:54:55;;;;;;;3.83;0.97;;;8.90;9.70;;;;;;5014981;28;20428;-67
2023/11/06 03:57:20;;;;;;;2.77;0.80;;;8.80;10.40;;;;;;5014899;28;20224;-67
2023/11/06 03:59:46;;;;;;;8.57;0.90;;;8.80;9.60;;;;;;5014713;28;20215;-67
2023/11/06 04:02:11;;;;;;;5.73;1.30;;;8.90;8.70;;;;;;5014338;28;20202;-67
2023/11/06 04:04:37;;;;;;;3.23;1.80;;;8.80;9.60;;;;;;5014873;28;20206;-68
2023/11/06 04:07:04;;;;;;;2.60;0.80;;;8.80;10.30;;;;;;5015045;28;20206;-68
2023/11/06 04:09:29;;;;;;;1.80;0.70;;;8.80;9.60;;;;;;5014851;28;20203;-67
2023/11/06 04:11:55;;;;;;;1.77;0.60;;;8.80;9.00;;;;;;5014163;28;20446;-67
2023/11/06 04:14:20;;;;;;;1.90;0.80;;;9.00;8.30;;;;;;5013332;28;20289;-68
2023/11/06 04:16:46;;;;;;;1.70;0.67;;;9.00;7.70;;;;;;5014445;28;20196;-68
2023/11/06 04:19:12;;;;;;;2.40;0.90;;;9.10;7.10;;;;;;5014422;28;20299;-67
2023/11/06 04:21:38;;;;;;;1.70;0.63;;;9.10;6.90;;;;;;5014190;28;20568;-67
2023/11/06 04:24:04;;;;;;;2.23;0.77;;;9.20;6.80;;;;;;5014377;28;20290;-68
2023/11/06 04:26:29;;;;;;;3.00;0.87;;;9.10;7.60;;;;;;5014237;28;20175;-68
2023/11/06 04:28:55;;;;;;;2.43;0.80;;;9.10;7.50;;;;;;5014356;28;20834;-68
2023/11/06 04:31:21;;;;;;;1.80;0.60;;;9.30;5.50;;;;;;5014372;28;20186;-67
2023/11/06 04:33:46;;;;;;;1.93;0.70;;;9.30;6.00;;;;;;5014212;28;20950;-68
2023/11/06 04:36:12;;;;;;;2.60;0.80;;;9.40;6.10;;;;;;5014200;28;20656;-68
2023/11/06 04:38:38;;;;;;;2.00;0.70;;;9.40;5.60;;;;;;5014721;28;20215;-67
2023/11/06 04:41:04;;;;;;;2.17;0.60;;;9.30;5.80;;;;;;4996840;28;20947;-67
2023/11/06 04:43:30;;;;;;;1.60;0.60;;;9.40;5.60;;;;;;5014520;28;20234;-67
2023/11/06 04:45:55;;;;;;;1.57;0.70;;;9.40;5.60;;;;;;4996775;28;20427;-68
2023/11/06 04:48:21;;;;;;;1.90;0.90;;;9.40;6.10;;;;;;5012974;28;20181;-67
2023/11/06 04:50:46;;;;;;;3.47;0.90;;;9.40;5.60;;;;;;5014055;28;20265;-67
2023/11/06 04:53:12;;;;;;;4.23;1.03;;;9.50;5.70;;;;;;5012999;28;20226;-67
2023/11/06 04:55:37;;;;;;;1.80;0.60;;;9.50;6.40;;;;;;4996842;28;20699;-67
2023/11/06 04:58:04;;;;;;;2.20;0.70;;;9.50;5.90;;;;;;5014149;28;20553;-68
2023/11/06 05:00:30;;;;;;;1.87;0.60;;;9.50;5.60;;;;;;5012290;28;20211;-67
2023/11/06 05:02:55;;;;;;;2.77;1.13;;;9.50;5.60;;;;;;5013893;28;20457;-68
2023/11/06 05:05:21;;;;;;;4.43;0.80;;;9.60;5.10;;;;;;5013631;28;20550;-68
2023/11/06 05:07:47;;;;;;;1.70;0.73;;;9.60;5.70;;;;;;5013688;28;20176;-68
2023/11/06 05:10:12;;;;;;;5.13;0.90;;;9.60;5.20;;;;;;5013549;28;20422;-67
2023/11/06 05:12:38;;;;;;;2.07;0.60;;;9.60;3.90;;;;;;5013193;28;20365;-67
2023/11/06 05:15:06;;;;;;;1.60;0.60;;;9.70;3.90;;;;;;5013404;28;20560;-67
2023/11/06 05:17:31;;;;;;;2.63;0.70;;;9.60;4.10;;;;;;5013419;28;20410;-68
2023/11/06 05:19:57;;;;;;;1.60;0.60;;;9.60;4.50;;;;;;5013185;28;20471;-68
2023/11/06 05:22:22;;;;;;;2.00;0.70;;;9.60;4.10;;;;;;5013170;28;20196;-68
2023/11/06 05:24:48;;;;;;;3.80;1.00;;;9.60;4.70;;;;;;5013243;28;20206;-68
2023/11/06 05:27:14;;;;;;;1.60;0.60;;;9.60;4.50;;;;;;5013278;28;20176;-67
2023/11/06 05:29:39;;;;;;;1.80;0.70;;;9.60;5.40;;;;;;5012962;28;20181;-68
2023/11/06 05:32:05;;;;;;;2.50;1.10;;;9.60;4.90;;;;;;5012851;28;20587;-68
2023/11/06 05:34:31;;;;;;;2.23;0.90;;;9.50;4.90;;;;;;5013090;28;20703;-67
2023/11/06 05:36:57;;;;;;;1.70;0.60;;;9.50;5.20;;;;;;4995382;28;20190;-68
2023/11/06 05:39:23;;;;;;;5.50;0.60;;;9.50;5.70;;;;;;5012893;28;20824;-67
2023/11/06 05:41:49;;;;;;;2.80;0.77;;;9.50;5.60;;;;;;5012625;28;20405;-68
2023/11/06 05:44:15;;;;;;;1.47;0.53;;;9.50;5.90;;;;;;5012770;28;20180;-67
2023/11/06 05:46:41;;;;;;;1.77;0.70;;;9.50;5.60;;;;;;5011588;28;20270;-67
2023/11/06 05:49:07;;;;;;;1.67;0.60;;;9.40;6.50;;;;;;5011406;28;20510;-68
2023/11/06 05:51:34;;;;;;;2.50;0.80;;;9.40;7.40;;;;;;5012524;28;20921;-68
2023/11/06 05:53:59;;;;;;;3.00;1.00;;;9.30;6.50;;;;;;5012682;28;20232;-67
2023/11/06 05:56:25;;;;;;;1.80;0.70;;;9.40;7.20;;;;;;5012634;28;20442;-67
2023/11/06 05:58:50;;;;;;;3.40;0.80;;;9.30;7.40;;;;;;5012348;28;20203;-68
2023/11/06 06:01:16;;;;;;;2.80;1.10;;;9.10;7.90;;;;;;5012220;28;20182;-68
2023/11/06 06:03:42;;;;;;;5.30;1.23;;;9.10;8.40;;;;;;5011626;28;20554;-68
2023/11/06 06:06:09;;;;;;;3.53;0.90;;;9.00;8.90;;;;;;5012378;28;20421;-67
2023/11/06 06:08:35;;;;;;;5.97;1.00;;;9.00;9.30;;;;;;5012412;28;20308;-67
2023/11/06 06:11:01;;;;;;;2.90;1.00;;;9.10;9.40;;;;;;5012042;28;20512;-67
2023/11/06 06:13:26;;;;;;;2.33;0.90;;;9.10;9.20;;;;;;5011999;28;20453;-67
2023/11/06 06:15:52;;;;;;;2.60;0.83;;;9.00;9.50;;;;;;5012258;28;20305;-67
2023/11/06 06:18:18;;;;;;;4.80;1.50;;;8.90;9.70;;;;;;5012267;28;20204;-68
2023/11/06 06:20:44;;;;;;;3.70;1.57;;;8.80;9.90;;;;;;5011977;28;20207;-68
2023/11/06 06:23:09;;;;;;;2.10;0.97;;;8.60;11.00;;;;;;5012061;28;20570;-68
2023/11/06 06:25:35;;;;;;;2.27;1.20;;;8.60;11.50;;;;;;5012135;28;20496;-66
2023/11/06 06:28:01;;;;;;;2.20;0.93;;;8.40;12.50;;;;;;5011923;28;20635;-67
2023/11/06 06:30:27;;;;;;;3.97;1.10;;;8.40;12.60;;;;;;4994417;28;20426;-67
2023/11/06 06:32:52;;;;;;;2.87;1.30;;;8.30;13.00;;;;;;5011805;28;20938;-67
2023/11/06 06:35:18;;;;;;;3.43;1.50;;;8.30;13.00;;;;;;5011938;28;20260;-67
2023/11/06 06:37:43;;;;;;;1.60;0.60;;;8.30;13.40;;;;;;4994403;28;20277;-68
2023/11/06 06:40:10;;;;;;;3.40;1.13;;;8.20;13.70;;;;;;5011880;28;20225;-68
2023/11/06 06:42:36;;;;;;;3.20;1.00;;;8.20;13.60;;;;;;5011490;28;20228;-68
2023/11/06 06:45:04;;;;;;;2.37;0.80;;;8.20;13.60;;;;;;5011924;28;20837;-68
2023/11/06 06:47:30;;;;;;;3.07;1.10;;;8.20;13.60;;;;;;5011696;28;20932;-68
2023/11/06 06:49:55;;;;;;;2.40;0.90;;;8.20;13.60;;;;;;5011925;28;20416;-68
2023/11/06 06:52:21;;;;;;;2.20;0.90;;;8.20;13.30;;;;;;5011648;28;20195;-68
2023/11/06 06:54:46;;;;;;;3.60;1.40;;;8.40;12.40;;;;;;5011929;28;20178;-68
2023/11/06 06:57:12;;;;;;;2.43;0.97;;;8.30;11.90;;;;;;5012236;28;20556;-68
2023/11/06 06:59:37;;;;;;;11.17;1.50;;;8.30;12.70;;;;;;5011007;28;20217;-68
2023/11/06 07:02:03;;;;;;;4.30;1.37;;;8.30;11.90;;;;;;5012932;28;20174;-68
2023/11/06 07:04:29;;;;;;;3.47;1.10;;;8.40;12.20;;;;;;5011088;28;20178;-68
2023/11/06 07:06:55;;;;;;;2.27;0.60;;;8.40;11.80;;;;;;5011734;28;20418;-67
2023/11/06 07:09:21;;;;;;;2.70;1.10;;;8.50;11.00;;;;;;5011679;28;20490;-66
2023/11/06 07:11:48;;;;;;;1.70;0.73;;;8.50;10.70;;;;;;5011079;28;20655;-67
2023/11/06 07:14:14;;;;;;;3.80;1.03;;;8.50;10.90;;;;;;5013276;28;20429;-67
2023/11/06 07:16:40;;;;;;;3.30;0.90;;;8.60;10.40;;;;;;5015614;28;20499;-68
2023/11/06 07:19:05;;;;;;;2.10;0.90;;;8.80;9.60;;;;;;5015560;28;20553;-68
2023/11/06 07:21:32;;;;;;;2.73;1.50;;;8.90;9.10;;;;;;5015409;28;20178;-67
2023/11/06 07:23:57;;;;;;;1.67;0.70;;;8.90;9.70;;;;;;5015336;28;20196;-67
2023/11/06 07:26:23;;;;;;;3.30;1.13;;;9.00;7.40;;;;;;5015831;28;20413;-67
2023/11/06 07:28:49;;;;;;;3.70;0.97;;;9.10;7.70;;;;;;5015322;28;20213;-67
2023/11/06 07:31:14;;;;;;;6.63;1.07;;;9.10;6.90;;;;;;5015038;28;20234;-68
2023/11/06 07:33:40;;;;;;;2.33;0.73;;;9.20;6.50;;;;;;5015183;28;20436;-67
2023/11/06 07:36:07;;;;;;;2.57;1.00;;;9.30;5.50;;;;;;5015176;28;20194;-68
2023/11/06 07:38:32;;;;;;;2.40;1.40;;;9.40;4.80;;;;;;4997438;28;20426;-67
2023/11/06 07:40:58;;;;;;;3.13;0.90;;;9.40;4.70;;;;;;5014808;28;20425;-68
2023/11/06 07:43:23;;;;;;;5.33;1.30;;;9.40;4.80;;;;;;5014870;28;20210;-67
2023/11/06 07:45:49;;;;;;;8.07;1.20;;;9.40;5.50;;;;;;5015026;28;20198;-67
2023/11/06 07:48:15;;;;;;;1.80;0.80;;;9.50;5.60;;;;;;5014902;28;20291;-67
2023/11/06 07:50:40;;;;;;;4.37;0.97;;;9.60;4.30;;;;;;5013210;28;20188;-68
2023/11/06 07:53:06;;;;;;;6.80;1.10;;;9.80;2.30;;;;;;5014687;28;20695;-68
2023/11/06 07:55:32;;;;;;;2.90;1.10;;;10.00;1.00;;;;;;4997124;28;20246;-66
2023/11/06 07:57:58;;;;;;;4.33;1.30;;;10.10;1.00;;;;;;4997241;28;20187;-68
2023/11/06 08:00:23;;;;;;;2.70;1.00;;;10.30;1.00;;;;;;5013203;28;20865;-68
2023/11/06 08:02:50;;;;;;;2.37;1.17;;;10.40;1.00;;;;;;5013088;28;20462;-67
2023/11/06 08:05:16;;;;;;;3.10;0.70;;;10.50;1.00;;;;;;5014310;28;20179;-68
2023/11/06 08:07:42;;;;;;;2.70;1.30;;;10.50;1.00;;;;;;5014416;28;20429;-68
2023/11/06 08:10:09;;;;;;;5.33;1.43;;;10.50;1.00;;;;;;5014095;28;20426;-68
2023/11/06 08:12:35;;;;;;;5.40;1.33;;;10.50;1.00;;;;;;5013818;28;20467;-68
2023/11/06 08:15:01;;;;;;;1.80;0.80;;;10.60;1.00;;;;;;5013949;28;20488;-67
2023/11/06 08:17:26;;;;;;;2.60;1.10;;;10.70;1.00;;;;;;5014082;28;20850;-68
2023/11/06 08:19:52;;;;;;;1.80;0.70;;;10.80;1.00;;;;;;4992749;28;20475;-67
2023/11/06 08:22:20;;;;;;;2.10;1.10;;;11.00;1.00;;;;;;4996179;28;20204;-68
2023/11/06 08:24:46;;;;;;;2.20;1.40;;;11.20;1.00;;;;;;5014058;28;20654;-67
2023/11/06 08:27:11;;;;;;;2.90;1.10;;;11.50;1.00;;;;;;5009154;28;20790;-68
2023/11/06 08:29:42;;;;;;;2.27;1.00;;;11.60;1.00;;;;;;5009936;28;20435;-68
2023/11/06 08:32:11;;;;;;;2.37;0.90;;;11.60;1.00;;;;;;4992510;28;20204;-68
2023/11/06 08:34:43;;;;;;;3.90;1.23;;;11.80;1.00;;;;;;5007810;28;20943;-67
2023/11/06 08:37:11;;;;;;;3.93;0.87;;;11.80;1.00;;;;;;5005768;28;20930;-66
2023/11/06 08:39:43;;;;;;;2.97;1.30;;;11.80;1.00;;;;;;5009323;28;20757;-68
2023/11/06 08:42:10;;;;;;;2.33;0.83;;;12.00;1.00;;;;;;5009661;28;20435;-68
2023/11/06 08:44:36;;;;;;;2.07;0.80;;;12.10;1.00;;;;;;5009555;28;20430;-68
2023/11/06 08:47:01;;;;;;;2.20;1.10;;;12.30;1.00;;;;;;5012812;28;20795;-68
2023/11/06 08:49:28;;;;;;;3.40;1.40;;;12.60;1.00;;;;;;4996050;28;20278;-71
2023/11/06 08:51:54;;;;;;;2.37;1.33;;;12.70;1.00;;;;;;5013439;28;20180;-71
2023/11/06 08:54:20;;;;;;;1.80;0.70;;;12.60;1.00;;;;;;4995680;28;20787;-71
2023/11/06 08:56:45;;;;;;;2.00;0.90;;;12.50;1.00;;;;;;5012549;28;20263;-71
2023/11/06 08:59:12;;;;;;;2.33;1.00;;;12.60;1.00;;;;;;5013574;28;20230;-70
2023/11/06 09:01:38;;;;;;;1.60;0.80;;;12.70;1.00;;;;;;5013360;28;20181;-71
2023/11/06 09:04:05;;;;;;;1.70;0.80;;;13.00;1.00;;;;;;5013630;28;20793;-70
2023/11/06 09:06:32;;;;;;;2.83;0.90;;;13.00;1.00;;;;;;5009244;28;20835;-70
2023/11/06 09:08:58;;;;;;;1.83;0.87;;;12.90;1.00;;;;;;5013108;28;20443;-70
2023/11/06 09:11:23;;;;;;;2.10;1.00;;;12.70;1.00;;;;;;5013033;28;20453;-71
2023/11/06 09:13:49;;;;;;;1.70;0.60;;;12.90;1.00;;;;;;5044101;23;20254;-69
2023/11/06 09:16:15;;;;;;;2.13;0.83;;;13.10;1.00;;;;;;5034339;28;20174;-68
2023/11/06 09:18:40;;;;;;;2.30;0.90;;;13.40;1.00;;;;;;5033628;28;20656;-68
2023/11/06 09:21:12;;;;;;;1.90;0.90;;;13.40;1.00;;;;;;5033362;28;20183;-68
2023/11/06 09:23:37;;;;;;;1.70;0.80;;;13.50;1.00;;;;;;5021093;28;20334;-68
2023/11/06 09:26:03;;;;;;;1.60;0.70;;;13.30;1.00;;;;;;5014513;28;20863;-69
2023/11/06 09:28:29;;;;;;;1.60;0.63;;;13.30;1.00;;;;;;5014185;28;20184;-69
2023/11/06 09:30:55;;;;;;;2.83;1.37;;;13.00;1.00;;;;;;5013383;28;20186;-72
2023/11/06 09:33:20;;;;;;;1.73;1.00;;;13.00;1.00;;;;;;4995059;28;20369;-69
2023/11/06 09:35:46;;;;;;;2.20;0.80;;;13.20;1.00;;;;;;5012935;28;20449;-70
2023/11/06 09:38:11;;;;;;;1.60;0.70;;;13.30;1.00;;;;;;5012719;28;20433;-69
2023/11/06 09:40:37;;;;;;;2.50;1.07;;;13.50;1.00;;;;;;5012619;28;20699;-69
2023/11/06 09:43:03;;;;;;;3.40;1.20;;;13.50;1.00;;;;;;5013006;28;20253;-69
2023/11/06 09:45:29;;;;;;;2.23;1.10;;;13.80;1.00;;;;;;5013014;28;20531;-69
2023/11/06 09:47:59;;;;;;;1.97;1.00;;;13.70;1.00;;;;;;5005736;28;20545;-69
2023/11/06 09:50:26;;;;;;;3.40;1.40;;;13.60;1.00;;;;;;4998125;28;20195;-71
2023/11/06 09:52:53;;;;;;;2.00;0.97;;;13.70;1.00;;;;;;4991088;28;20450;-69
2023/11/06 09:55:19;;;;;;;2.23;1.10;;;13.80;1.00;;;;;;4990656;28;20435;-69
2023/11/06 09:57:49;;;;;;;1.97;1.10;;;13.80;1.00;;;;;;5008135;28;20986;-67
2023/11/06 10:00:16;;;;;;;3.60;0.97;;;13.80;1.00;;;;;;5008733;28;20588;-68
2023/11/06 10:02:46;;;;;;;1.80;0.77;;;13.60;1.00;;;;;;5007753;28;20506;-68
2023/11/06 10:05:16;;;;;;;1.60;0.70;;;13.60;1.00;;;;;;5007940;28;21022;-68
2023/11/06 10:07:45;;;;;;;2.00;1.20;;;14.00;1.00;;;;;;5007822;28;20430;-68
2023/11/06 10:10:16;;;;;;;1.90;0.90;;;14.10;1.00;;;;;;5007295;28;20511;-69
2023/11/06 10:12:42;;;;;;;2.57;0.77;;;14.00;1.00;;;;;;4997589;28;20483;-68
2023/11/06 10:15:11;;;;;;;1.77;1.00;;;13.70;1.00;;;;;;4991051;28;20416;-68
2023/11/06 10:17:40;;;;;;;2.20;1.13;;;13.60;1.00;;;;;;4992287;28;20962;-69
2023/11/06 10:20:14;;;;;;;2.53;0.80;;;13.80;1.00;;;;;;4991937;28;20470;-69
2023/11/06 10:22:55;;;;;;;1.70;0.70;;;14.20;1.00;;;;;;5011141;28;20447;-69
2023/11/06 10:25:30;;;;;;;2.03;1.10;;;14.70;1.00;;;;;;5011749;28;20862;-68
2023/11/06 10:27:56;;;;;;;2.60;1.30;;;14.90;1.00;;;;;;5010152;28;20872;-69
2023/11/06 10:30:23;;;;;;;5.27;1.67;;;15.00;1.00;;;;;;4989675;28;20998;-68
2023/11/06 10:32:49;;;;;;;2.30;1.03;;;14.80;1.00;;;;;;5009343;28;20620;-68
2023/11/06 10:35:17;;;;;;;3.77;1.47;;;14.60;1.00;;;;;;4990727;28;20485;-68
2023/11/06 10:37:44;;;;;;;6.90;1.70;;;14.50;1.00;;;;;;5010975;28;20438;-68
2023/11/06 10:40:16;;;;;;;4.10;1.43;;;14.60;1.00;;;;;;5010431;28;20478;-69
2023/11/06 10:42:46;;;;;;;3.90;1.73;;;14.60;1.00;;;;;;5010825;28;20469;-68
2023/11/06 10:45:17;;;;;;;1.93;1.07;;;14.50;1.00;;;;;;5010962;28;20460;-68
2023/11/06 10:47:52;;;;;;;2.27;1.00;;;14.30;1.00;;;;;;5011054;28;20437;-68
2023/11/06 10:50:23;;;;;;;2.73;1.30;;;14.30;1.00;;;;;;5010367;28;20445;-68
2023/11/06 10:52:54;;;;;;;2.57;1.30;;;14.50;1.00;;;;;;5009842;28;20494;-68
2023/11/06 10:55:24;;;;;;;1.90;1.30;;;14.60;1.00;;;;;;5011156;28;20415;-68
2023/11/06 10:57:54;;;;;;;2.17;1.30;;;14.70;1.00;;;;;;5010927;28;20444;-69
2023/11/06 11:00:20;;;;;;;3.70;1.10;;;15.00;1.00;;;;;;5010241;28;20860;-69
2023/11/06 11:02:55;;;;;;;2.20;1.00;;;14.60;1.00;;;;;;5010742;28;20450;-67
2023/11/06 11:05:24;;;;;;;2.70;1.20;;;14.60;1.00;;;;;;5010868;28;20418;-68
2023/11/06 11:07:51;;;;;;;3.40;1.10;;;14.80;1.00;;;;;;5011049;28;20440;-68
2023/11/06 11:10:18;;;;;;;2.70;1.00;;;14.50;1.00;;;;;;5005875;28;20747;-68
2023/11/06 11:12:46;;;;;;;2.00;1.10;;;14.30;1.00;;;;;;5010366;28;20561;-69
2023/11/06 11:15:12;;;;;;;1.80;0.83;;;14.50;1.00;;;;;;4993037;28;20820;-68
2023/11/06 11:17:37;;;;;;;1.80;1.07;;;14.40;1.00;;;;;;5010732;28;20489;-68
2023/11/06 11:20:07;;;;;;;2.57;1.10;;;14.30;1.00;;;;;;4992277;28;20208;-68
2023/11/06 11:22:52;;;;;;;2.80;1.20;;;14.30;1.00;;;;;;5009265;28;20208;-68
2023/11/06 11:25:56;;;;;;;1.80;0.90;;;14.20;1.00;;;;;;5009889;28;20908;-68
2023/11/06 11:28:22;;;;;;;2.13;1.20;;;14.00;1.00;;;;;;5007934;28;20415;-68
2023/11/06 11:30:47;;;;;;;2.27;1.03;;;13.80;1.00;;;;;;5010164;28;20801;-68
2023/11/06 11:33:52;;;;;;;2.17;0.93;;;13.70;1.00;;;;;;5010219;28;20238;-68
2023/11/06 11:36:38;;;;;;;1.80;0.70;;;13.70;1.00;;;;;;5010330;28;20199;-68
2023/11/06 11:39:13;;;;;;;2.57;1.00;;;13.50;1.00;;;;;;5010486;28;20466;-68
2023/11/06 11:41:59;;;;;;;2.90;0.70;;;13.40;1.00;;;;;;5010333;28;20452;-69
2023/11/06 11:44:25;;;;;;;1.70;0.80;;;13.40;1.00;;;;;;5005232;28;20431;-67
2023/11/06 11:46:50;;;;;;;2.27;0.93;;;13.40;1.00;;;;;;5010783;28;20464;-68
2023/11/06 11:49:45;;;;;;;2.10;1.00;;;13.50;1.00;;;;;;5010296;28;20426;-68
2023/11/06 11:52:36;;;;;;;1.70;0.70;;;13.70;1.00;;;;;;5010091;28;20182;-68
2023/11/06 11:55:31;;;;;;;2.30;0.90;;;13.80;1.00;;;;;;4993895;28;20435;-71
2023/11/06 11:58:00;;;;;;;2.13;1.10;;;14.00;1.00;;;;;;5010434;28;20411;-67
2023/11/06 12:00:26;;;;;;;5.40;1.37;;;14.40;1.00;;;;;;5010464;28;20458;-68
2023/11/06 12:03:08;;;;;;;2.27;0.93;;;14.70;1.00;;;;;;5013455;28;20441;-68
2023/11/06 12:05:33;;;;;;;2.67;1.10;;;15.00;1.00;;;;;;5013885;28;20206;-68
2023/11/06 12:07:59;;;;;;;2.13;1.00;;;15.20;1.00;;;;;;5014078;28;20446;-68
2023/11/06 12:10:29;;;;;;;2.83;1.20;;;15.40;1.00;;;;;;4996453;28;20187;-68
2023/11/06 12:12:56;;;;;;;3.27;1.07;;;15.20;1.00;;;;;;5013848;28;20219;-67
2023/11/06 12:15:33;;;;;;;2.33;1.30;;;15.10;1.00;;;;;;5014359;28;21000;-67
2023/11/06 12:18:09;;;;;;;2.33;1.13;;;15.10;1.00;;;;;;5014623;28;20418;-67
2023/11/06 12:20:35;;;;;;;3.30;1.30;;;15.10;1.00;;;;;;5014115;28;20477;-67
2023/11/06 12:23:01;;;;;;;2.00;1.20;;;15.20;1.00;;;;;;5011843;28;20512;-67
2023/11/06 12:25:31;;;;;;;4.40;1.20;;;14.80;1.00;;;;;;4996485;28;20176;-67
2023/11/06 12:28:07;;;;;;;1.80;0.80;;;14.60;1.00;;;;;;5013939;28;20422;-68
2023/11/06 12:30:34;;;;;;;2.10;1.10;;;14.60;1.00;;;;;;5013940;28;20501;-67
2023/11/06 12:33:14;;;;;;;2.20;1.30;;;14.50;1.00;;;;;;5013811;28;20446;-67
2023/11/06 12:35:41;;;;;;;1.70;0.90;;;14.30;1.00;;;;;;5014127;28;20504;-67
2023/11/06 12:38:07;;;;;;;3.33;1.10;;;14.00;1.00;;;;;;5014102;28;20809;-67
2023/11/06 12:40:33;;;;;;;2.00;0.90;;;13.90;1.00;;;;;;5013973;28;20485;-67
2023/11/06 12:43:03;;;;;;;2.43;0.80;;;14.10;1.00;;;;;;5013493;28;20442;-67
2023/11/06 12:45:30;;;;;;;2.57;1.70;;;14.20;1.00;;;;;;5014158;28;20204;-68
2023/11/06 12:48:03;;;;;;;2.23;1.10;;;14.20;1.00;;;;;;5013696;28;20967;-68
2023/11/06 12:50:32;;;;;;;1.70;0.70;;;14.10;1.00;;;;;;5013368;28;20411;-68
2023/11/06 12:52:57;;;;;;;3.50;1.30;;;14.10;1.00;;;;;;5013221;28;20438;-71
2023/11/06 12:55:23;;;;;;;1.90;1.10;;;14.00;1.00;;;;;;5012919;28;20592;-69
2023/11/06 12:57:50;;;;;;;1.80;0.80;;;14.00;1.00;;;;;;5010967;28;20199;-68
2023/11/06 13:00:26;;;;;;;2.00;0.87;;;13.90;1.00;;;;;;4993793;28;20219;-68